• Join FlightAware (Why Join?)
  • Login
  • US Flag 
09:29PM EST


 

Airport Tracker/Info


-or-


 

Live Flight TrackerFlight Track Log ✈ N405DD ✈ 02-May-2013 ✈ KFSD - KAXN

Flight Track Log - Related Links

Times and Time Zones

All times are in EDT time to prevent confusion due to time zone crossing. See the N405DD flight status page for this flight to view local times or setup timezone preferences in your user account.

Time Position Orientation Groundspeed Altitude Reporting Facility
EDT Latitude Longitude Course Direction KTS MPH feet Rate Location/Type
06:04PM 43.6297 -96.7022 37° Northeast 125 144 3,600  Level Minneapolis Center
06:05PM 43.6589 -96.6692 39° Northeast 130 150 4,700 1,140 Climbing Minneapolis Center
06:06PM 43.6953 -96.6267 40° Northeast 137 158 6,000 1,200 Climbing Minneapolis Center
06:07PM 43.7244 -96.5903 42° Northeast 140 161 7,200 1,020 Climbing Minneapolis Center
06:08PM 43.7522 -96.5531 44° Northeast 140 161 8,100 960 Climbing Minneapolis Center
06:09PM 43.9271 -96.5456 22° Northeast  Level Estimated
06:10PM 43.7822 -96.5150 42° Northeast 142 163 9,200  Level Minneapolis Center
06:11PM 43.8089 -96.4683 52° Northeast 147 169 10,100 840 Climbing Minneapolis Center
06:12PM 43.8336 -96.4156 57° Northeast 155 178 11,000 600 Climbing Minneapolis Center
06:18PM 44.0300 -96.0240 57° Northeast 242 278 14,500 480 Climbing FlightAware
06:19PM 44.0590 -95.9650 56° Northeast 244 281 14,500  Level FlightAware
06:19PM 44.0840 -95.9130 56° Northeast 239 275 14,500  Level FlightAware
06:20PM 44.1100 -95.8620 55° Northeast 236 272 14,500  Level FlightAware
06:21PM 44.1360 -95.8080 56° Northeast 234 269 14,500  Level FlightAware
06:22PM 44.1710 -95.7380 55° Northeast 234 269 14,500  Level FlightAware
06:22PM 44.1940 -95.6900 56° Northeast 232 267 14,500  Level FlightAware
06:23PM 44.2260 -95.6250 55° Northeast 232 267 14,500  Level FlightAware
06:24PM 44.2560 -95.5640 56° Northeast 232 267 14,500  Level FlightAware
06:25PM 44.2860 -95.5030 55° Northeast 231 266 14,500  Level FlightAware
06:26PM 44.3130 -95.4470 56° Northeast 232 267 14,500  Level FlightAware
06:26PM 44.3350 -95.4000 57° Northeast 232 267 14,500  Level FlightAware
06:27PM 44.3600 -95.3480 56° Northeast 232 267 14,500  Level FlightAware
06:28PM 44.3810 -95.3060 55° Northeast 232 267 14,500  Level FlightAware
06:29PM 44.4470 -95.1700 56° Northeast 232 267 14,500  Level FlightAware
06:30PM 44.4710 -95.1360 45° Northeast 229 264 14,500  Level FlightAware
06:30PM 44.4860 -95.1290 18° North 225 259 14,500  Level FlightAware
06:31PM 44.5270 -95.1330 356° North 225 259 14,500  Level FlightAware
06:31PM 44.5750 -95.1350 358° North 226 260 14,500  Level FlightAware
06:32PM 44.6170 -95.1380 357° North 226 260 14,500  Level FlightAware
06:33PM 44.6620 -95.1420 356° North 226 260 14,500  Level FlightAware
06:34PM 44.7050 -95.1440 358° North 226 260 14,500  Level FlightAware
06:34PM 44.7450 -95.1470 357° North 227 261 14,500  Level FlightAware
06:35PM 44.7950 -95.1500 358° North 229 264 14,500  Level FlightAware
06:36PM 44.8370 -95.1530 357° North 230 265 14,500  Level FlightAware
06:36PM 44.8850 -95.1570 357° North 231 266 14,500  Level FlightAware
06:37PM 44.9290 -95.1590 358° North 232 267 14,500  Level FlightAware
06:38PM 44.9710 -95.1620 357° North 232 267 14,500  Level FlightAware
06:38PM 45.0190 -95.1660 357° North 234 269 14,500  Level FlightAware
06:39PM 45.0620 -95.1690 357° North 234 269 14,500  Level FlightAware
06:40PM 45.1110 -95.1720 358° North 233 268 14,500  Level FlightAware
06:41PM 45.1550 -95.1760 356° North 235 270 14,500  Level FlightAware
06:41PM 45.1990 -95.1790 357° North 235 270 14,500  Level FlightAware
06:42PM 45.2460 -95.1820 357° North 234 269 14,500  Level FlightAware
06:43PM 45.2900 -95.1850 357° North 233 268 14,500  Level FlightAware
06:43PM 45.3310 -95.1880 357° North 233 268 14,500  Level FlightAware
06:44PM 45.3800 -95.1970 353° North 230 265 14,500  Level FlightAware
06:45PM 45.4210 -95.2120 346° North 229 264 14,500 -240 Level FlightAware
06:45PM 45.4680 -95.2280 347° North 228 262 14,200 -900 Descending FlightAware
06:46PM 45.5100 -95.2430 346° North 230 265 13,300 -1,440 Descending FlightAware
06:47PM 45.5570 -95.2600 346° North 229 264 12,200 -1,800 Descending FlightAware
06:48PM 45.5980 -95.2740 347° North 225 259 10,800 -2,040 Descending FlightAware
06:48PM 45.6310 -95.2860 346° North 219 252 9,700 -960 Descending FlightAware
06:49PM 45.6620 -95.2970 346° North 219 252 9,700  Level FlightAware
06:49PM 45.6870 -95.3060 346° North 219 252 9,700  Level FlightAware
06:50PM 45.7040 -95.3120 346° North 219 252 9,700  Level FlightAware
06:50PM 45.7290 -95.3210 346° North 219 252 9,700  Level FlightAware
06:55PM 45.8663 -95.3947 North  Level Estimated
06:56PM 45.8663 -95.3947 234° Southwest  Level Estimated
06:57PM 45.8663 -95.3947 229° Southwest  Level Estimated
06:58PM 45.8663 -95.3947 215° Southwest  Level Estimated
06:59PM 45.8663 -95.3947 215° Southwest  Level Estimated
07:00PM 45.8663 -95.3947 215° Southwest  Level Estimated
07:01PM 45.8663 -95.3947 215° Southwest  Level Estimated
07:02PM 45.8663 -95.3947 215° Southwest  Level Estimated
07:03PM 45.8663 -95.3947 215° Southwest  Level Estimated
07:04PM 45.8663 -95.3947 215° Southwest  Level Estimated
07:05PM 45.8663 -95.3947 215° Southwest  Level Estimated
07:06PM 45.8663 -95.3947 215° Southwest  Level Estimated
07:07PM 45.8663 -95.3947 215° Southwest  Level Estimated
07:08PM 45.8663 -95.3947 215° Southwest  Level Estimated
07:09PM 45.8663 -95.3947 215° Southwest  Level Estimated
07:10PM 45.8663 -95.3947 215° Southwest  Level Estimated
07:11PM 45.8663 -95.3947 215° Southwest  Level Estimated
07:12PM 45.8663 -95.3947 215° Southwest  Level Estimated
07:13PM 45.8663 -95.3947 215° Southwest  Level Estimated